TimeHST,TemperatureF,Dew PointF,Humidity,Sea Level PressureIn,VisibilityMPH,Wind Direction,Wind SpeedMPH,Gust SpeedMPH,PrecipitationIn,Events,Conditions,WindDirDegrees,DateUTC
12:14 AM,77.0,71.6,83,29.99,-9999.0,East,10.4,-,N/A,,Mostly Cloudy,100,2013-10-16 10:14:00
12:25 AM,77.0,71.6,83,29.99,10.0,East,6.9,-,N/A,,Scattered Clouds,100,2013-10-16 10:25:00
12:53 AM,73.9,71.1,91,29.98,10.0,Calm,Calm,-,N/A,,Partly Cloudy,0,2013-10-16 10:53:00
1:13 AM,73.4,71.6,94,29.98,-9999.0,West,4.6,-,N/A,,Mostly Cloudy,260,2013-10-16 11:13:00
1:24 AM,73.4,71.6,94,29.97,-9999.0,Calm,Calm,-,N/A,,Mostly Cloudy,0,2013-10-16 11:24:00
1:39 AM,73.4,71.6,94,29.97,10.0,WSW,4.6,-,N/A,,Scattered Clouds,250,2013-10-16 11:39:00
1:53 AM,73.0,71.1,93,29.96,10.0,WSW,3.5,-,N/A,,Scattered Clouds,250,2013-10-16 11:53:00
2:53 AM,73.0,70.0,90,29.94,10.0,West,4.6,-,N/A,,Scattered Clouds,260,2013-10-16 12:53:00
3:51 AM,71.6,69.8,94,29.95,-9999.0,West,6.9,-,N/A,,Mostly Cloudy,270,2013-10-16 13:51:00
3:53 AM,72.0,69.1,91,29.94,-9999.0,West,6.9,-,N/A,,Mostly Cloudy,270,2013-10-16 13:53:00
4:00 AM,71.6,69.8,94,29.95,10.0,WNW,8.1,-,N/A,,Scattered Clouds,290,2013-10-16 14:00:00
4:53 AM,73.0,70.0,90,29.94,10.0,West,5.8,-,0.00,Rain,Light Rain,270,2013-10-16 14:53:00
5:53 AM,72.0,69.1,91,29.95,-9999.0,West,4.6,-,0.00,,Overcast,260,2013-10-16 15:53:00
6:53 AM,72.0,69.1,91,29.96,10.0,WNW,5.8,-,N/A,,Mostly Cloudy,290,2013-10-16 16:53:00
7:53 AM,75.9,72.0,87,29.98,10.0,WNW,5.8,-,N/A,,Mostly Cloudy,300,2013-10-16 17:53:00
8:53 AM,78.1,72.0,81,30.00,10.0,Calm,Calm,-,N/A,,Mostly Cloudy,0,2013-10-16 18:53:00
9:22 AM,80.6,71.6,74,30.01,10.0,ENE,9.2,-,N/A,,Scattered Clouds,70,2013-10-16 19:22:00
9:53 AM,80.1,71.1,74,30.01,10.0,ENE,10.4,-,N/A,,Partly Cloudy,70,2013-10-16 19:53:00
10:53 AM,81.0,71.1,72,30.01,10.0,ENE,12.7,-,N/A,,Scattered Clouds,70,2013-10-16 20:53:00
11:53 AM,81.0,70.0,69,29.99,10.0,ENE,11.5,-,N/A,,Partly Cloudy,70,2013-10-16 21:53:00
12:53 PM,82.0,70.0,67,29.97,10.0,East,10.4,-,N/A,,Clear,80,2013-10-16 22:53:00
1:53 PM,82.0,71.1,69,29.95,10.0,ENE,10.4,-,N/A,,Partly Cloudy,70,2013-10-16 23:53:00
2:53 PM,82.0,72.0,71,29.94,10.0,East,10.4,-,N/A,,Scattered Clouds,80,2013-10-17 00:53:00
3:53 PM,80.1,71.1,74,29.93,10.0,ENE,9.2,-,N/A,,Scattered Clouds,60,2013-10-17 01:53:00
4:53 PM,79.0,70.0,74,29.93,10.0,ENE,6.9,-,N/A,,Partly Cloudy,70,2013-10-17 02:53:00
5:53 PM,78.1,70.0,76,29.94,10.0,ENE,4.6,-,N/A,,Partly Cloudy,70,2013-10-17 03:53:00
6:32 PM,78.8,69.8,74,29.96,10.0,NE,6.9,-,N/A,,Mostly Cloudy,50,2013-10-17 04:32:00
6:41 PM,77.0,69.8,78,29.96,10.0,ENE,5.8,-,N/A,,Partly Cloudy,60,2013-10-17 04:41:00
6:53 PM,77.0,69.1,76,29.96,10.0,NE,4.6,-,N/A,,Partly Cloudy,50,2013-10-17 04:53:00
7:53 PM,77.0,69.1,76,29.97,10.0,NE,6.9,-,N/A,,Clear,40,2013-10-17 05:53:00
8:29 PM,78.8,69.8,74,30.00,10.0,ENE,6.9,-,N/A,,Mostly Cloudy,70,2013-10-17 06:29:00
8:36 PM,78.8,69.8,74,30.00,10.0,NE,6.9,-,N/A,,Mostly Cloudy,50,2013-10-17 06:36:00
8:50 PM,77.0,69.8,78,30.01,10.0,NE,5.8,-,N/A,,Mostly Cloudy,50,2013-10-17 06:50:00
8:53 PM,77.0,70.0,79,30.00,10.0,NE,3.5,-,N/A,,Mostly Cloudy,40,2013-10-17 06:53:00
9:27 PM,75.2,69.8,83,30.01,10.0,Calm,Calm,-,N/A,,Mostly Cloudy,0,2013-10-17 07:27:00
9:38 PM,75.2,69.8,83,30.02,10.0,NW,3.5,-,N/A,,Scattered Clouds,310,2013-10-17 07:38:00
9:53 PM,75.0,70.0,84,30.01,10.0,Calm,Calm,-,N/A,,Partly Cloudy,0,2013-10-17 07:53:00
10:31 PM,75.2,69.8,83,30.01,-9999.0,ENE,8.1,-,N/A,,Mostly Cloudy,60,2013-10-17 08:31:00
10:39 PM,77.0,69.8,78,30.01,-9999.0,ENE,8.1,-,N/A,,Mostly Cloudy,60,2013-10-17 08:39:00
10:53 PM,77.0,70.0,79,30.00,-9999.0,ENE,8.1,-,N/A,,Mostly Cloudy,60,2013-10-17 08:53:00
11:49 PM,73.4,69.8,88,30.00,-9999.0,West,3.5,-,N/A,,Mostly Cloudy,260,2013-10-17 09:49:00
11:53 PM,73.9,69.1,85,29.99,-9999.0,Calm,Calm,-,N/A,,Mostly Cloudy,0,2013-10-17 09:53:00